METAR Data
IDs: Format: Raw Decoded Include TAF

Data at: 1019 UTC 26 Sep 2018

KBTL 261017Z 28013G19KT 10SM SCT020 BKN030 OVC080 15/12 A2994 RMK AO2 T01500117
KBTL 260953Z 30013G21KT 10SM FEW019 OVC028 15/12 A2992 RMK AO2 SLP126 T01500122
KBTL 260900Z AUTO 30009KT 10SM SCT014 BKN020 OVC026 16/14 A2990 RMK AO2 T01610139
KBTL 260853Z AUTO 29011KT 10SM BKN014 OVC019 16/14 A2989 RMK AO2 RAB0755E10 SLP117 P0001 60001 T01610139 51009
KBTL 260820Z AUTO 30010G19KT 10SM FEW010 BKN017 OVC029 16/14 A2989 RMK AO2 RAB0755E10 P0001 T01610144
KBTL 260801Z AUTO 31015G24KT 6SM -RA BR FEW008 BKN013 OVC019 17/15 A2989 RMK AO2 RAB0755 P0001 T01670150
KBTL 260753Z AUTO 29013G20KT 10SM BKN013 OVC018 17/16 A2988 RMK AO2 SLP112 T01720156
KBTL 260745Z AUTO 29009KT 10SM OVC014 18/16 A2987 RMK AO2 T01780156
KBTL 260700Z AUTO 30009KT 10SM SCT010 BKN016 OVC021 18/16 A2988 RMK AO2 T01780161
KBTL 260653Z AUTO 30013G19KT 10SM BKN008 OVC014 18/16 A2988 RMK AO2 CIG 006V013 SLP112 T01780161
KBTL 260626Z AUTO 26013KT 10SM OVC008 19/17 A2987 RMK AO2 CIG 006V011 T01890172
KBTL 260553Z AUTO 24010KT 10SM BKN010 OVC019 18/17 A2986 RMK AO2 SLP106 60018 T01830172 10222 20178 50004
KBTL 260506Z AUTO 22010KT 10SM BKN025 BKN030 18/17 A2986 RMK AO2 T01830167
KBTL 260453Z AUTO 22010KT 10SM BKN030 BKN120 18/17 A2986 RMK AO2 SLP106 T01830167 402670178
KBTL 260353Z AUTO 23008KT 10SM CLR 18/17 A2985 RMK AO2 SLP103 T01830167
KBTL 260253Z AUTO 22010KT 10SM FEW110 18/17 A2986 RMK AO2 RAB0154E42 SLP106 P0002 60018 T01830167 53007
KBTL 260200Z AUTO 20012KT 10SM -RA FEW008 BKN110 19/17 A2983 RMK AO2 LTG DSNT S RAB0154 P0000 T01940172
KBTL 260153Z 21014G24KT 10SM VCTS FEW010 SCT037 BKN110 21/18 A2983 RMK AO2 LTG DSNT S AND SW RAB25E47 TSB28E49 SLP096 TS W MOV E P0016 T02060178
KBTL 260144Z 23015G20KT 10SM -TSRA SCT019 BKN075 OVC110 22/19 A2984 RMK AO2 LTG DSNT S AND SW RAB25 TSB28 TS W MOV E P0016 T02170194
KBTL 260128Z 21013G20KT 2SM R23R/4500VP6000FT +TSRA BR FEW024 BKN055 BKN075 22/20 A2983 RMK AO2 VIS 3/4V5 LTG DSNT SW AND W RAB25 TSB28 TS W MOV E P0012 T02220200
KBTL 260053Z 19010KT 10SM BKN080 22/20 A2983 RMK AO2 SLP098 T02170200
KBTL 252353Z 20006KT 10SM CLR 22/19 A2984 RMK AO2 SLP099 60000 T02170194 10267 20217 53004
KBTL 252253Z 20011KT 10SM FEW090 24/19 A2983 RMK AO2 SLP094 T02440194
KBTL 252153Z 21013KT 10SM FEW035 SCT043 BKN070 26/19 A2983 RMK AO2 LTG DSNT N SLP094 T02610194
KBTL 252053Z 19014G18KT 10SM FEW026 26/19 A2983 RMK AO2 SLP093 60000 T02610194 58024
KBTL 252037Z 19010KT 10SM SCT026 27/20 A2984 RMK AO2 T02670200
KBTL 251953Z 21015KT 10SM BKN025 26/20 A2986 RMK AO2 RAB02E11 SLP106 P0000 T02560200
KBTL 251909Z 22012KT 10SM -RA FEW022 BKN033 BKN110 26/21 A2987 RMK AO2 RAB02 P0000 T02610206
KBTL 251900Z 22013KT 10SM BKN022 BKN029 BKN034 26/20 A2988 RMK AO2 PRESFR T02610200
KBTL 251853Z 22014KT 10SM FEW022 SCT027 BKN033 26/21 A2990 RMK AO2 SLP118 T02560206
KBTL 251851Z 22013KT 10SM SCT022 BKN034 26/21 A2990 RMK AO2
KBTL 251808Z 22012KT 10SM BKN019 25/21 A2992 RMK AO2 T02500206
KBTL 251800Z 21010KT 10SM SCT017 24/21 A2992 RMK AO2 T02440206
KBTL 251753Z 20014G18KT 10SM BKN017 25/21 A2992 RMK AO2 SLP125 60005 T02500206 10250 20200 58008
KBTL 251720Z 20013KT 10SM BKN017 24/21 A2992 RMK AO2 T02390211
KBTL 251713Z 22011KT 10SM SCT017 24/21 A2992 RMK AO2 T02390211
KBTL 251700Z 21009KT 10SM FEW010 BKN017 24/21 A2993 RMK AO2 T02390211
KBTL 251653Z 21009KT 6SM HZ BKN009 BKN015 OVC050 24/21 A2993 RMK AO2 RAE22 SLP129 P0003 T02390211
KBTL 251612Z 23005KT 8SM -RA BKN009 BKN015 OVC050 23/21 A2993 RMK AO2 P0003 T02280206
KBTL 251600Z 19004KT 6SM -RA BR SCT010 BKN015 OVC050 23/21 A2994 RMK AO2 P0002 T02280211
KBTL 251553Z 18004KT 4SM -RA BR BKN006 OVC012 23/21 A2994 RMK AO2 RAB29 SLP133 P0001 T02280211
KBTL 251500Z 16004KT 4SM BR BKN006 OVC012 22/21 A2994 RMK AO2 T02220206
KBTL 251453Z 17003KT 2SM BR SCT006 OVC012 22/21 A2994 RMK AO2 SLP134 60001 T02170206 56002
KBTL 251429Z 17005KT 2SM BR OVC004 21/20 A2995 RMK AO2 T02110200
KBTL 251353Z 17004KT 2SM BR OVC006 21/20 A2994 RMK AO2 RAB02E47 SLP134 P0001 T02110200
KBTL 251300Z 00000KT 5SM BR BKN008 BKN025 OVC075 21/19 A2994 RMK AO2 CIG 005V010 T02060194
KBTL 251253Z 18005KT 2SM BR BKN006 OVC075 21/19 A2995 RMK AO2 RAE13B40E50 CIG 005V010 SLP138 P0000 T02060194
KBTL 251153Z 18004KT 1 1/2SM -RA BR BKN006 OVC070 21/19 A2995 RMK AO2 LTG DSNT E RAB51 SLP138 P0000 60002 70007 T02060194 10206 20200 50003
KBTL 251053Z 24005KT 8SM BKN007 OVC040 21/19 A2996 RMK AO2 CIG 005V010 SLP139 T02060194
KBTL 250953Z 21006KT 10SM BKN006 BKN011 OVC034 21/19 A2994 RMK AO2 CIG 005V010 SLP135 T02060194
KBTL 250853Z AUTO 20006KT 8SM BKN006 OVC010 20/19 A2994 RMK AO2 RAB08E39 CIG 003V009 SLP135 P0001 60002 T02000194 56006
KBTL 250753Z AUTO 19007KT 10SM OVC008 20/19 A2994 RMK AO2 RAB23E35 SLP136 P0001 T02000194
KBTL 250745Z AUTO 19008KT 9SM BKN006 OVC010 20/19 A2995 RMK AO2 RAB23E35 P0001 T02000194
KBTL 250653Z AUTO 18008KT 7SM OVC004 20/19 A2995 RMK AO2 SLP138 T02000194
KBTL 250636Z AUTO 18007KT 7SM OVC004 20/19 A2995 RMK AO2 T02000194
KBTL 250553Z AUTO 18006KT 10SM OVC005 20/19 A2996 RMK AO2 RAE0454 SLP141 P0000 60004 T02000194 10200 20183 58010
KBTL 250453Z AUTO 16006KT 4SM -RA BR OVC005 20/19 A2998 RMK AO2 RAB44 SLP146 P0000 T02000189 402170100
KBTL 250353Z AUTO 15005KT 10SM BKN009 OVC013 20/19 A2999 RMK AO2 SLP152 T02000189
KBTL 250341Z AUTO 15004KT 10SM BKN012 BKN016 OVC024 20/19 A2999 RMK AO2 T02000189
KBTL 250332Z AUTO 15005KT 10SM BKN015 BKN023 OVC030 20/19 A2999 RMK AO2 T02000189
KBTL 250310Z AUTO 15007KT 10SM FEW005 OVC030 20/19 A2999 RMK AO2 T02000189
KBTL 250253Z AUTO 15007KT 8SM BKN007 BKN011 OVC034 19/19 A2999 RMK AO2 CIG 004V009 SLP152 60004 T01940189 57005
KBTL 250153Z 14006KT 10SM OVC006 19/18 A3000 RMK AO2 RAB0056E25 CIG 004V010 SLP155 P0001 T01940183
KBTL 250053Z 13006KT 7SM OVC005 18/18 A3000 RMK AO2 RAE17 SLP158 P0003 T01830178
KBTL 250020Z 12008KT 5SM BR BKN006 OVC010 18/18 A3000 RMK AO2 RAE17 P0003 T01830178
KBTL 242353Z 12005KT 2SM -RA BR OVC006 18/17 A3001 RMK AO2 RAB45 CIG 003V010 SLP160 P0001 60001 T01830172 10211 20183 56007
KBTL 242349Z 13007KT 2SM -RA BR OVC006 18/17 A3001 RMK AO2 RAB45 CIG 005V010 P0000
KBTL 242253Z 13008KT 3SM BR OVC007 19/17 A3002 RMK AO2 SLP164 VSBY LWR NE T01890172